createdAt,value
2018-11-10T00:01:40.326Z,56.80
2018-11-10T00:04:09.227Z,56.90
2018-11-10T00:06:38.061Z,56.80
2018-11-10T00:09:07.523Z,56.80
2018-11-10T00:11:36.479Z,56.80
2018-11-10T00:14:06.244Z,57.20
2018-11-10T00:16:36.036Z,56.80
2018-11-10T00:19:04.913Z,56.70
2018-11-10T00:21:33.763Z,56.80
2018-11-10T00:24:02.615Z,56.90
2018-11-10T00:26:31.466Z,56.70
2018-11-10T00:29:00.355Z,56.70
2018-11-10T00:31:29.268Z,56.70
2018-11-10T00:33:58.105Z,56.80
2018-11-10T00:36:26.960Z,56.80
2018-11-10T00:38:55.839Z,56.80
2018-11-10T00:41:24.683Z,56.70
2018-11-10T00:43:53.529Z,56.90
2018-11-10T00:46:22.405Z,56.80
2018-11-10T00:48:51.303Z,57.00
2018-11-10T00:51:20.127Z,57.00
2018-11-10T00:53:48.969Z,57.00
2018-11-10T00:56:17.818Z,56.90
2018-11-10T00:58:46.770Z,57.00
2018-11-10T01:01:15.656Z,57.60
2018-11-10T01:03:44.502Z,56.90
2018-11-10T01:06:13.349Z,56.70
2018-11-10T01:26:37.815Z,57.00
2018-11-10T01:47:01.390Z,57.00
2018-11-10T01:49:30.245Z,57.00
2018-11-10T01:51:59.093Z,57.10
2018-11-10T01:54:27.938Z,56.90
2018-11-10T02:14:52.899Z,57.10
2018-11-10T02:35:17.897Z,57.10
2018-11-10T02:55:41.918Z,57.30
2018-11-10T03:05:21.014Z,57.40
2018-11-10T03:07:50.358Z,57.30
2018-11-10T03:10:19.293Z,57.70
2018-11-10T03:12:48.130Z,57.30
2018-11-10T03:15:16.987Z,57.30
2018-11-10T03:17:45.860Z,57.30
2018-11-10T03:20:15.731Z,57.30
2018-11-10T03:22:45.375Z,57.40
2018-11-10T03:25:14.275Z,57.40
2018-11-10T03:27:43.169Z,57.40
2018-11-10T03:30:12.019Z,57.40
2018-11-10T03:32:41.205Z,57.40
2018-11-10T03:35:11.056Z,57.30
2018-11-10T03:37:40.585Z,57.30
2018-11-10T03:40:11.533Z,57.30
2018-11-10T03:42:42.279Z,57.40
2018-11-10T03:45:12.249Z,57.40
2018-11-10T03:47:41.180Z,57.40
2018-11-10T03:50:10.777Z,57.30
2018-11-10T03:52:39.619Z,57.50
2018-11-10T03:55:09.679Z,57.40
2018-11-10T03:57:38.525Z,57.40
2018-11-10T04:00:10.903Z,57.20
2018-11-10T04:02:40.863Z,57.20
2018-11-10T04:05:10.663Z,57.20
2018-11-10T04:07:40.119Z,57.10
2018-11-10T04:10:08.962Z,57.20
2018-11-10T04:12:37.811Z,57.10
2018-11-10T04:15:06.663Z,57.10
2018-11-10T04:17:36.410Z,57.20
2018-11-10T04:20:06.650Z,57.10
2018-11-10T04:22:38.867Z,57.20
2018-11-10T04:25:09.921Z,57.10
2018-11-10T04:27:38.766Z,57.30
2018-11-10T04:30:08.958Z,57.30
2018-11-10T04:32:37.882Z,57.20
2018-11-10T04:35:07.679Z,57.30
2018-11-10T04:37:37.489Z,57.40
2018-11-10T04:40:07.364Z,57.60
2018-11-10T04:42:36.430Z,57.60
2018-11-10T04:45:06.622Z,57.50
2018-11-10T04:47:35.522Z,57.50
2018-11-10T04:50:05.963Z,57.30
2018-11-10T04:52:34.794Z,57.50
2018-11-10T04:55:03.779Z,57.40
2018-11-10T04:57:32.743Z,57.50
2018-11-10T05:00:01.595Z,57.40
2018-11-10T05:02:30.440Z,57.50
2018-11-10T05:04:59.275Z,57.90
2018-11-10T05:25:22.810Z,57.80
2018-11-10T05:45:47.605Z,58.10
2018-11-10T06:03:29.195Z,58.30
2018-11-10T06:05:58.035Z,58.30
2018-11-10T06:08:26.967Z,58.30
2018-11-10T06:10:55.823Z,58.40
2018-11-10T06:13:24.689Z,58.50
2018-11-10T06:15:53.781Z,58.40
2018-11-10T06:18:22.650Z,58.50
2018-11-10T06:20:51.498Z,58.60
2018-11-10T06:23:20.433Z,58.60
2018-11-10T06:25:49.298Z,58.60
2018-11-10T06:28:18.223Z,59.00
2018-11-10T06:30:47.083Z,58.60
2018-11-10T06:33:15.929Z,58.60
2018-11-10T06:35:44.845Z,58.60
2018-11-10T06:38:13.767Z,58.70
2018-11-10T06:40:42.623Z,58.60
2018-11-10T06:43:11.458Z,58.70
2018-11-10T06:45:40.310Z,58.80
2018-11-10T06:48:09.240Z,59.00
2018-11-10T06:50:38.082Z,58.80
2018-11-10T06:53:06.955Z,58.80
2018-11-10T06:55:35.807Z,58.80
2018-11-10T06:58:05.531Z,58.90
2018-11-10T07:00:34.397Z,58.70
2018-11-10T07:03:03.260Z,58.70
2018-11-10T07:05:32.107Z,58.90
2018-11-10T07:25:56.927Z,59.00
2018-11-10T07:46:21.210Z,59.10
2018-11-10T08:06:47.392Z,59.40
2018-11-10T08:27:11.327Z,59.40
2018-11-10T08:29:40.204Z,59.40
2018-11-10T08:32:09.050Z,59.40
2018-11-10T08:34:37.916Z,59.50
2018-11-10T08:55:03.998Z,59.40
2018-11-10T09:15:27.800Z,59.50
2018-11-10T09:35:51.785Z,59.50
2018-11-10T09:56:15.626Z,59.50
2018-11-10T10:16:40.847Z,59.60
2018-11-10T10:37:05.161Z,59.90
2018-11-10T10:57:30.561Z,59.80
2018-11-10T10:59:59.426Z,59.80
2018-11-10T11:02:33.810Z,59.80
2018-11-10T11:05:09.842Z,59.90
2018-11-10T11:25:34.569Z,59.80
2018-11-10T11:45:59.060Z,59.80
2018-11-10T12:06:23.984Z,59.80
2018-11-10T12:30:53.128Z,59.80
2018-11-10T12:33:21.992Z,59.80
2018-11-10T12:35:50.851Z,59.70
2018-11-10T12:56:15.023Z,59.80
2018-11-10T13:16:39.055Z,59.70
2018-11-10T13:37:02.823Z,59.70
2018-11-10T13:57:27.504Z,59.80
2018-11-10T13:59:56.955Z,59.10
2018-11-10T14:02:26.005Z,59.70
2018-11-10T14:04:54.878Z,59.70
2018-11-10T14:25:18.536Z,59.70
2018-11-10T14:45:41.895Z,59.90
2018-11-10T15:06:06.008Z,59.90
2018-11-10T15:08:34.891Z,59.90
2018-11-10T15:11:03.754Z,59.90
2018-11-10T15:13:32.618Z,59.90
2018-11-10T15:16:01.500Z,59.90
2018-11-10T15:18:30.618Z,59.90
2018-11-10T15:20:59.455Z,59.90
2018-11-10T15:23:28.411Z,59.90
2018-11-10T15:25:57.330Z,59.90
2018-11-10T15:28:26.230Z,59.90
2018-11-10T15:30:55.106Z,59.90
2018-11-10T15:33:24.090Z,60.00
2018-11-10T15:35:52.945Z,59.90
2018-11-10T15:38:22.337Z,59.90
2018-11-10T15:40:51.192Z,59.90
2018-11-10T15:43:20.077Z,59.90
2018-11-10T15:45:48.972Z,59.90
2018-11-10T15:48:17.882Z,59.90
2018-11-10T15:50:46.795Z,59.90
2018-11-10T15:53:15.672Z,60.10
2018-11-10T15:55:44.543Z,60.00
2018-11-10T15:58:13.412Z,60.10
2018-11-10T16:00:42.290Z,60.10
2018-11-10T16:03:11.140Z,60.00
2018-11-10T16:05:40.012Z,60.80
2018-11-10T16:26:05.370Z,59.80
2018-11-10T16:46:28.375Z,59.90
2018-11-10T17:03:43.802Z,59.90
2018-11-10T17:06:12.694Z,60.00
2018-11-10T17:08:41.725Z,59.90
2018-11-10T17:11:10.544Z,59.80
2018-11-10T17:13:39.479Z,59.90
2018-11-10T17:16:08.296Z,59.90
2018-11-10T17:18:37.260Z,59.90
2018-11-10T17:21:06.128Z,59.90
2018-11-10T17:23:34.991Z,59.90
2018-11-10T17:26:03.851Z,60.00
2018-11-10T17:28:32.818Z,59.90
2018-11-10T17:31:01.677Z,59.90
2018-11-10T17:33:30.531Z,59.90
2018-11-10T17:35:59.382Z,59.90
2018-11-10T17:38:28.243Z,60.10
2018-11-10T17:40:57.092Z,60.00
2018-11-10T17:43:25.960Z,59.90
2018-11-10T17:45:54.811Z,60.10
2018-11-10T17:48:23.786Z,60.00
2018-11-10T17:50:52.565Z,60.00
2018-11-10T17:53:21.430Z,60.00
2018-11-10T17:55:50.297Z,59.90
2018-11-10T17:58:19.214Z,59.90
2018-11-10T18:00:48.052Z,60.00
2018-11-10T18:03:16.915Z,60.00
2018-11-10T18:05:45.779Z,60.00
2018-11-10T18:08:14.645Z,60.00
2018-11-10T18:10:43.503Z,60.10
2018-11-10T18:13:12.363Z,60.20
2018-11-10T18:15:41.220Z,60.00
2018-11-10T18:18:10.089Z,60.10
2018-11-10T18:20:38.943Z,60.20
2018-11-10T18:23:07.811Z,60.20
2018-11-10T18:25:36.691Z,60.10
2018-11-10T18:28:05.749Z,60.20
2018-11-10T18:30:34.616Z,60.10
2018-11-10T18:33:03.468Z,60.20
2018-11-10T18:35:32.338Z,60.10
2018-11-10T18:38:01.210Z,60.20
2018-11-10T18:40:30.115Z,60.20
2018-11-10T18:42:58.996Z,60.10
2018-11-10T18:45:27.836Z,60.10
2018-11-10T18:47:56.835Z,60.00
2018-11-10T18:50:25.670Z,60.00
2018-11-10T18:52:54.527Z,60.00
2018-11-10T18:55:23.465Z,60.00
2018-11-10T18:57:52.346Z,60.00
2018-11-10T19:00:21.210Z,60.00
2018-11-10T19:02:50.078Z,60.00
2018-11-10T19:05:18.961Z,60.10
2018-11-10T19:25:43.415Z,60.20
2018-11-10T19:46:07.191Z,60.10
2018-11-10T20:06:31.412Z,60.10
2018-11-10T20:26:55.311Z,59.90
2018-11-10T20:29:24.203Z,59.90
2018-11-10T20:31:53.043Z,59.90
2018-11-10T20:34:21.929Z,59.90
2018-11-10T20:36:50.810Z,59.90
2018-11-10T20:57:15.066Z,59.80
2018-11-10T20:59:43.939Z,59.80
2018-11-10T21:02:12.794Z,59.80
2018-11-10T21:04:41.643Z,59.80
2018-11-10T21:25:19.893Z,59.80
2018-11-10T21:45:44.897Z,59.70
2018-11-10T22:06:07.976Z,59.60
2018-11-10T22:08:36.861Z,59.60
2018-11-10T22:11:05.853Z,59.60
2018-11-10T22:13:34.727Z,59.50
2018-11-10T22:16:03.619Z,59.50
2018-11-10T22:18:32.520Z,59.60
2018-11-10T22:21:01.403Z,59.60
2018-11-10T22:23:30.314Z,59.60
2018-11-10T22:25:59.170Z,59.50
2018-11-10T22:28:28.081Z,59.50
2018-11-10T22:30:57.003Z,59.50
2018-11-10T22:33:26.072Z,59.50
2018-11-10T22:35:54.923Z,59.50
2018-11-10T22:38:23.855Z,59.60
2018-11-10T22:40:52.711Z,59.50
2018-11-10T22:43:21.562Z,59.50
2018-11-10T22:45:50.431Z,59.50
2018-11-10T22:48:19.326Z,59.50
2018-11-10T22:50:48.178Z,59.50
2018-11-10T22:53:17.044Z,59.60
2018-11-10T22:55:45.914Z,59.50
2018-11-10T22:58:14.791Z,59.60
2018-11-10T23:00:48.981Z,59.60
2018-11-10T23:03:17.861Z,59.60
2018-11-10T23:05:46.745Z,59.50
2018-11-10T23:08:15.611Z,59.50
2018-11-10T23:10:44.470Z,59.60
2018-11-10T23:13:13.340Z,59.50
2018-11-10T23:15:42.181Z,59.50
2018-11-10T23:18:11.136Z,59.50
2018-11-10T23:20:40.015Z,59.60
2018-11-10T23:23:08.879Z,59.60
2018-11-10T23:25:37.733Z,59.60
2018-11-10T23:28:06.686Z,59.60
2018-11-10T23:30:35.548Z,59.60
2018-11-10T23:33:04.570Z,59.60
2018-11-10T23:35:33.486Z,59.60
2018-11-10T23:38:02.404Z,59.60
2018-11-10T23:40:31.353Z,59.60
2018-11-10T23:43:00.215Z,59.60
2018-11-10T23:45:29.261Z,59.60
2018-11-10T23:47:58.107Z,59.60
2018-11-10T23:50:27.539Z,59.60
2018-11-10T23:52:56.390Z,59.50
2018-11-10T23:55:25.308Z,59.50
2018-11-10T23:57:54.180Z,59.60
